James L. Oberstar — WDC6154 — position and weather

sailwx.info

Track history (hours):
 
Tides and Currents Weather Stations Pressure Air Temp Water Temp Dewpoint Dewpoint Depression Visibility Wind Speed Wind Dir Waves Ship Positions

James L. Oberstar

Owner: Destin Trading Corporation, harahan, LA. More information available from US FCC via Universal Licensing System and Coast Guard Vessel Documentation Center.

Last reported at 2015-Feb-15 08:16 UTC. Time now 2015-Mar-07 01:43 UTC.
Position N 29°49' W 093°59'.
Warning: this ship's position is 19 days out of date.

Length 26 m; draft 2.8 m.

Type: Towing. MMSI: 367052120.

Date/timePositionNaut miles runAvg speedWind from/ knotsBaromVisibWave heightAir tempDewpointWater temp
2015-Feb-15 08:16N 29°49' W 093°59'0 0.0
2015-Feb-15 07:28N 29°49' W 093°59'0 0.0
2015-Feb-15 06:13N 29°49' W 093°59'50 1.5
2015-Feb-13 21:05N 29°29' W 094°52'4 6.8
2015-Feb-13 20:33N 29°32' W 094°54'7 6.9
2015-Feb-13 19:33N 29°39' W 094°58'6 6.4
2015-Feb-13 18:33N 29°44' W 095°02'4 4.0
2015-Feb-13 17:32N 29°47' W 095°05'0 0.0
2015-Feb-13 16:32N 29°47' W 095°05'0 0.4
2015-Feb-13 15:32N 29°47' W 095°04'0 0.2
2015-Feb-13 14:32N 29°47' W 095°04'1 0.9
2015-Feb-13 13:34N 29°46' W 095°05'2 1.6
2015-Feb-13 12:31N 29°45' W 095°06'0 0.0
2015-Feb-13 11:31N 29°45' W 095°06'0 0.0
2015-Feb-13 10:31N 29°45' W 095°06'0 0.0
2015-Feb-13 09:31N 29°45' W 095°06'0 0.0
2015-Feb-13 08:31N 29°45' W 095°06'0 0.0
2015-Feb-13 07:31N 29°45' W 095°06'0 0.0
2015-Feb-13 06:31N 29°45' W 095°06'0 0.0
2015-Feb-13 05:31N 29°45' W 095°06'0 0.0
2015-Feb-13 04:31N 29°45' W 095°06'0 0.0
2015-Feb-13 03:31N 29°45' W 095°06'0 0.0
2015-Feb-13 02:28N 29°45' W 095°06'0 0.0
2015-Feb-13 01:31N 29°45' W 095°06'0 0.0
2015-Feb-13 00:28N 29°45' W 095°06'0 0.0
2015-Feb-12 23:31N 29°45' W 095°06'0 0.0
2015-Feb-12 22:31N 29°45' W 095°06'0 0.0
2015-Feb-12 21:31N 29°45' W 095°06'1 0.7
2015-Feb-12 20:33N 29°45' W 095°06'2 2.0
2015-Feb-12 19:32N 29°47' W 095°05'0 0.2
2015-Feb-12 18:32N 29°47' W 095°05'0 0.0
2015-Feb-12 17:32N 29°47' W 095°05'0 0.0
2015-Feb-12 16:29N 29°47' W 095°05'0 0.0
2015-Feb-12 15:32N 29°47' W 095°05'0 0.1
2015-Feb-12 14:33N 29°47' W 095°05'0 0.1
2015-Feb-12 13:32N 29°47' W 095°05'0 0.0
2015-Feb-12 12:32N 29°47' W 095°05'0 0.0
2015-Feb-12 11:33N 29°47' W 095°05'0 0.0
2015-Feb-12 10:33N 29°47' W 095°05'0 0.0
2015-Feb-12 09:33N 29°47' W 095°05'0 0.0
2015-Feb-12 08:33N 29°47' W 095°05'0 0.0
2015-Feb-12 07:30N 29°47' W 095°05'0 0.0
2015-Feb-12 06:30N 29°47' W 095°05'1 0.8
2015-Feb-12 05:33N 29°47' W 095°05'2 0.8
2015-Feb-12 02:29N 29°46' W 095°07'27261413.2
2015-Feb-12 00:33N 75°12' W 095°06'27242183.4
2015-Feb-11 23:18N 29°47' W 095°05'0 0.1
2015-Feb-11 22:30N 29°47' W 095°05'0 0.0
2015-Feb-11 21:33N 29°47' W 095°05'0 0.0
2015-Feb-11 20:33N 29°47' W 095°05'0 0.1
2015-Feb-11 19:33N 29°47' W 095°05'0 0.5
2015-Feb-11 18:33N 29°47' W 095°04'1 1.5
2015-Feb-11 17:33N 29°46' W 095°05'4 3.3
2015-Feb-11 16:28N 29°44' W 095°08'0 0.0
2015-Feb-11 15:28N 29°44' W 095°08'0 0.0
2015-Feb-11 14:31N 29°44' W 095°08'0 0.1
2015-Feb-11 13:31N 29°44' W 095°08'0 0.0
2015-Feb-11 12:31N 29°44' W 095°08'0 0.1
2015-Feb-11 11:29N 29°44' W 095°08'0 0.1
2015-Feb-11 10:29N 29°44' W 095°08'0 0.0
2015-Feb-11 09:23N 29°44' W 095°08'0 0.0
2015-Feb-11 03:11N 29°44' W 095°08'0 0.1
2015-Feb-11 01:28N 29°44' W 095°08'0 0.0
2015-Feb-11 00:31N 29°44' W 095°08'2 1.8
2015-Feb-10 23:33N 29°45' W 095°06'3 3.2
2015-Feb-10 22:33N 29°47' W 095°05'0 0.1
2015-Feb-10 21:33N 29°47' W 095°05'0 0.0
2015-Feb-10 20:33N 29°47' W 095°05'0 0.0
2015-Feb-10 19:33N 29°47' W 095°05'0 0.0
2015-Feb-10 18:33N 29°47' W 095°05'0 0.0
2015-Feb-10 17:33N 29°47' W 095°05'0 0.1
2015-Feb-10 16:31N 29°47' W 095°05'0 0.1
2015-Feb-10 15:33N 29°47' W 095°05'3 2.8
2015-Feb-10 14:33N 29°45' W 095°06'0 0.2
2015-Feb-10 13:33N 29°45' W 095°06'0 0.0
2015-Feb-10 12:33N 29°45' W 095°06'0 0.0
2015-Feb-10 11:33N 29°45' W 095°06'0 0.0
2015-Feb-10 10:30N 29°45' W 095°06'0 0.0
2015-Feb-10 09:33N 29°45' W 095°06'0 0.0
2015-Feb-10 08:33N 29°45' W 095°06'0 0.0
2015-Feb-10 07:33N 29°45' W 095°06'0 0.0
2015-Feb-10 06:33N 29°45' W 095°06'0 0.0
2015-Feb-10 05:33N 29°45' W 095°06'0 0.0
2015-Feb-10 04:24N 29°45' W 095°06'0 0.0
2015-Feb-10 03:30N 29°45' W 095°06'0 0.0
2015-Feb-10 02:30N 29°45' W 095°06'0 0.0
2015-Feb-10 01:33N 29°45' W 095°06'0 0.0
2015-Feb-10 00:15N 29°45' W 095°06'0 0.0
2015-Feb-09 23:27N 29°45' W 095°06'0 0.0
2015-Feb-09 22:21N 29°45' W 095°06'0 0.6
2015-Feb-09 21:33N 29°45' W 095°06'2 1.7
2015-Feb-09 20:32N 29°44' W 095°08'0 0.1
2015-Feb-09 19:31N 29°44' W 095°08'0 0.0
2015-Feb-09 18:31N 29°44' W 095°08'0 0.0
2015-Feb-09 17:31N 29°44' W 095°08'0 0.0
2015-Feb-09 16:31N 29°44' W 095°08'0 0.0
2015-Feb-09 15:31N 29°44' W 095°08'0 0.0
2015-Feb-09 14:31N 29°44' W 095°08'0 0.0
2015-Feb-08 06:19N 29°44' W 095°08'4 5.4
2015-Feb-08 05:33N 29°47' W 095°05'0 0.2
2015-Feb-08 02:30N 29°46' W 095°05'4 1.7
2015-Feb-08 00:16N 29°44' W 095°08'2 2.1
2015-Feb-07 23:27N 29°45' W 095°06'0 0.0
2015-Feb-07 22:30N 29°45' W 095°06'0 0.0
2015-Feb-07 21:21N 29°45' W 095°06'0 0.0
2015-Feb-07 20:30N 29°45' W 095°06'0 0.0
2015-Feb-07 18:24N 29°45' W 095°06'0 0.0
2015-Feb-07 17:30N 29°45' W 095°06'0 0.0
2015-Feb-07 14:33N 29°45' W 095°06'0 0.0
2015-Feb-07 13:33N 29°45' W 095°06'0 0.0
2015-Feb-07 12:33N 29°45' W 095°06'0 0.0
2015-Feb-07 11:28N 29°45' W 095°06'0 0.0
2015-Feb-07 10:28N 29°45' W 095°06'0 0.0
2015-Feb-07 09:31N 29°45' W 095°06'0 0.0
2015-Feb-07 08:31N 29°45' W 095°06'0 0.0
2015-Feb-07 07:31N 29°45' W 095°06'0 0.0
2015-Feb-07 06:31N 29°45' W 095°06'0 0.0
2015-Feb-07 05:28N 29°45' W 095°06'0 0.0
2015-Feb-07 04:28N 29°45' W 095°06'0 0.0
2015-Feb-07 03:31N 29°45' W 095°06'0 0.0
2015-Feb-07 02:28N 29°45' W 095°06'0 0.0
2015-Feb-07 01:28N 29°45' W 095°06'0 0.0
2015-Feb-07 00:31N 29°45' W 095°06'0 0.0
2015-Feb-06 23:28N 29°45' W 095°06'0 0.0
2015-Feb-06 22:22N 29°45' W 095°06'0 0.0
2015-Feb-06 21:28N 29°45' W 095°06'0 0.0
2015-Feb-06 20:28N 29°45' W 095°06'0 0.0
2015-Feb-06 19:31N 29°45' W 095°06'0 0.0
2015-Feb-06 18:28N 29°45' W 095°06'0 0.0
2015-Feb-06 17:19N 29°45' W 095°06'0 0.0
2015-Feb-06 16:31N 29°45' W 095°06'0 0.0
2015-Feb-06 15:31N 29°45' W 095°06'0 0.0
2015-Feb-06 14:25N 29°45' W 095°06'2 2.1
2015-Feb-06 13:33N 29°44' W 095°08'0 0.0
2015-Feb-06 12:33N 29°44' W 095°08'0 0.0
2015-Feb-06 11:33N 29°44' W 095°08'0 0.1
2015-Feb-06 10:33N 29°44' W 095°08'0 0.2
2015-Feb-06 09:33N 29°44' W 095°08'0 0.0
2015-Feb-06 08:33N 29°44' W 095°08'0 0.0
2015-Feb-06 07:33N 29°44' W 095°08'0 0.1
2015-Feb-06 06:31N 29°44' W 095°08'0 0.1
2015-Feb-06 05:33N 29°44' W 095°08'0 0.1
2015-Feb-06 04:33N 29°44' W 095°08'0 0.0
2015-Feb-06 03:33N 29°44' W 095°08'0 0.0
2015-Feb-06 02:33N 29°44' W 095°08'0 0.0
2015-Feb-06 01:33N 29°44' W 095°08'0 0.0
2015-Feb-06 00:33N 29°44' W 095°08'0 0.1
2015-Feb-05 23:32N 29°44' W 095°08'0 0.1
2015-Feb-05 22:31N 29°44' W 095°08'0 0.1
2015-Feb-05 21:32N 29°44' W 095°08'0 0.1
2015-Feb-05 20:33N 29°44' W 095°08'0 0.0
2015-Feb-05 19:33N 29°44' W 095°08'0 0.0
2015-Feb-05 18:33N 29°44' W 095°08'0 0.1
2015-Feb-05 17:32N 29°44' W 095°08'0 0.0
2015-Feb-05 16:32N 29°44' W 095°08'0 0.0
2015-Feb-05 15:32N 29°44' W 095°08'0 0.0
2015-Feb-05 14:32N 29°44' W 095°08'0 0.1
2015-Feb-05 13:32N 29°44' W 095°08'0 0.0
2015-Feb-05 12:32N 29°44' W 095°08'0 0.0
2015-Feb-05 11:32N 29°44' W 095°08'0 0.0
2015-Feb-05 10:32N 29°44' W 095°08'0 0.0
2015-Feb-05 09:32N 29°44' W 095°08'0 0.0
2015-Feb-05 08:32N 29°44' W 095°08'  
Track history (hours):
 
Tides and Currents Weather Stations Pressure Air Temp Water Temp Dewpoint Dewpoint Depression Visibility Wind Speed Wind Dir Waves Ship Positions

James L. Oberstar

Owner: Destin Trading Corporation, harahan, LA. More information available from US FCC via Universal Licensing System and Coast Guard Vessel Documentation Center.

Last reported at 2015-Feb-15 08:16 UTC. Time now 2015-Mar-07 01:43 UTC.
Position N 29°49' W 093°59'.
Warning: this ship's position is 19 days out of date.

Length 26 m; draft 2.8 m.

Type: Towing. MMSI: 367052120.

Date/timePositionNaut miles runAvg speedWind from/ knotsBaromVisibWave heightAir tempDewpointWater temp
2015-Feb-15 08:16N 29°49' W 093°59'0 0.0
2015-Feb-15 07:28N 29°49' W 093°59'0 0.0
2015-Feb-15 06:13N 29°49' W 093°59'50 1.5
2015-Feb-13 21:05N 29°29' W 094°52'4 6.8
2015-Feb-13 20:33N 29°32' W 094°54'7 6.9
2015-Feb-13 19:33N 29°39' W 094°58'6 6.4
2015-Feb-13 18:33N 29°44' W 095°02'4 4.0
2015-Feb-13 17:32N 29°47' W 095°05'0 0.0
2015-Feb-13 16:32N 29°47' W 095°05'0 0.4
2015-Feb-13 15:32N 29°47' W 095°04'0 0.2
2015-Feb-13 14:32N 29°47' W 095°04'1 0.9
2015-Feb-13 13:34N 29°46' W 095°05'2 1.6
2015-Feb-13 12:31N 29°45' W 095°06'0 0.0
2015-Feb-13 11:31N 29°45' W 095°06'0 0.0
2015-Feb-13 10:31N 29°45' W 095°06'0 0.0
2015-Feb-13 09:31N 29°45' W 095°06'0 0.0
2015-Feb-13 08:31N 29°45' W 095°06'0 0.0
2015-Feb-13 07:31N 29°45' W 095°06'0 0.0
2015-Feb-13 06:31N 29°45' W 095°06'0 0.0
2015-Feb-13 05:31N 29°45' W 095°06'0 0.0
2015-Feb-13 04:31N 29°45' W 095°06'0 0.0
2015-Feb-13 03:31N 29°45' W 095°06'0 0.0
2015-Feb-13 02:28N 29°45' W 095°06'0 0.0
2015-Feb-13 01:31N 29°45' W 095°06'0 0.0
2015-Feb-13 00:28N 29°45' W 095°06'0 0.0
2015-Feb-12 23:31N 29°45' W 095°06'0 0.0
2015-Feb-12 22:31N 29°45' W 095°06'0 0.0
2015-Feb-12 21:31N 29°45' W 095°06'1 0.7
2015-Feb-12 20:33N 29°45' W 095°06'2 2.0
2015-Feb-12 19:32N 29°47' W 095°05'0 0.2
2015-Feb-12 18:32N 29°47' W 095°05'0 0.0
2015-Feb-12 17:32N 29°47' W 095°05'0 0.0
2015-Feb-12 16:29N 29°47' W 095°05'0 0.0
2015-Feb-12 15:32N 29°47' W 095°05'0 0.1
2015-Feb-12 14:33N 29°47' W 095°05'0 0.1
2015-Feb-12 13:32N 29°47' W 095°05'0 0.0
2015-Feb-12 12:32N 29°47' W 095°05'0 0.0
2015-Feb-12 11:33N 29°47' W 095°05'0 0.0
2015-Feb-12 10:33N 29°47' W 095°05'0 0.0
2015-Feb-12 09:33N 29°47' W 095°05'0 0.0
2015-Feb-12 08:33N 29°47' W 095°05'0 0.0
2015-Feb-12 07:30N 29°47' W 095°05'0 0.0
2015-Feb-12 06:30N 29°47' W 095°05'1 0.8
2015-Feb-12 05:33N 29°47' W 095°05'2 0.8
2015-Feb-12 02:29N 29°46' W 095°07'27261413.2
2015-Feb-12 00:33N 75°12' W 095°06'27242183.4
2015-Feb-11 23:18N 29°47' W 095°05'0 0.1
2015-Feb-11 22:30N 29°47' W 095°05'0 0.0
2015-Feb-11 21:33N 29°47' W 095°05'0 0.0
2015-Feb-11 20:33N 29°47' W 095°05'0 0.1
2015-Feb-11 19:33N 29°47' W 095°05'0 0.5
2015-Feb-11 18:33N 29°47' W 095°04'1 1.5
2015-Feb-11 17:33N 29°46' W 095°05'4 3.3
2015-Feb-11 16:28N 29°44' W 095°08'0 0.0
2015-Feb-11 15:28N 29°44' W 095°08'0 0.0
2015-Feb-11 14:31N 29°44' W 095°08'0 0.1
2015-Feb-11 13:31N 29°44' W 095°08'0 0.0
2015-Feb-11 12:31N 29°44' W 095°08'0 0.1
2015-Feb-11 11:29N 29°44' W 095°08'0 0.1
2015-Feb-11 10:29N 29°44' W 095°08'0 0.0
2015-Feb-11 09:23N 29°44' W 095°08'0 0.0
2015-Feb-11 03:11N 29°44' W 095°08'0 0.1
2015-Feb-11 01:28N 29°44' W 095°08'0 0.0
2015-Feb-11 00:31N 29°44' W 095°08'2 1.8
2015-Feb-10 23:33N 29°45' W 095°06'3 3.2
2015-Feb-10 22:33N 29°47' W 095°05'0 0.1
2015-Feb-10 21:33N 29°47' W 095°05'0 0.0
2015-Feb-10 20:33N 29°47' W 095°05'0 0.0
2015-Feb-10 19:33N 29°47' W 095°05'0 0.0
2015-Feb-10 18:33N 29°47' W 095°05'0 0.0
2015-Feb-10 17:33N 29°47' W 095°05'0 0.1
2015-Feb-10 16:31N 29°47' W 095°05'0 0.1
2015-Feb-10 15:33N 29°47' W 095°05'3 2.8
2015-Feb-10 14:33N 29°45' W 095°06'0 0.2
2015-Feb-10 13:33N 29°45' W 095°06'0 0.0
2015-Feb-10 12:33N 29°45' W 095°06'0 0.0
2015-Feb-10 11:33N 29°45' W 095°06'0 0.0
2015-Feb-10 10:30N 29°45' W 095°06'0 0.0
2015-Feb-10 09:33N 29°45' W 095°06'0 0.0
2015-Feb-10 08:33N 29°45' W 095°06'0 0.0
2015-Feb-10 07:33N 29°45' W 095°06'0 0.0
2015-Feb-10 06:33N 29°45' W 095°06'0 0.0
2015-Feb-10 05:33N 29°45' W 095°06'0 0.0
2015-Feb-10 04:24N 29°45' W 095°06'0 0.0
2015-Feb-10 03:30N 29°45' W 095°06'0 0.0
2015-Feb-10 02:30N 29°45' W 095°06'0 0.0
2015-Feb-10 01:33N 29°45' W 095°06'0 0.0
2015-Feb-10 00:15N 29°45' W 095°06'0 0.0
2015-Feb-09 23:27N 29°45' W 095°06'0 0.0
2015-Feb-09 22:21N 29°45' W 095°06'0 0.6
2015-Feb-09 21:33N 29°45' W 095°06'2 1.7
2015-Feb-09 20:32N 29°44' W 095°08'0 0.1
2015-Feb-09 19:31N 29°44' W 095°08'0 0.0
2015-Feb-09 18:31N 29°44' W 095°08'0 0.0
2015-Feb-09 17:31N 29°44' W 095°08'0 0.0
2015-Feb-09 16:31N 29°44' W 095°08'0 0.0
2015-Feb-09 15:31N 29°44' W 095°08'0 0.0
2015-Feb-09 14:31N 29°44' W 095°08'0 0.0
2015-Feb-08 06:19N 29°44' W 095°08'4 5.4
2015-Feb-08 05:33N 29°47' W 095°05'0 0.2
2015-Feb-08 02:30N 29°46' W 095°05'4 1.7
2015-Feb-08 00:16N 29°44' W 095°08'2 2.1
2015-Feb-07 23:27N 29°45' W 095°06'0 0.0
2015-Feb-07 22:30N 29°45' W 095°06'0 0.0
2015-Feb-07 21:21N 29°45' W 095°06'0 0.0
2015-Feb-07 20:30N 29°45' W 095°06'0 0.0
2015-Feb-07 18:24N 29°45' W 095°06'0 0.0
2015-Feb-07 17:30N 29°45' W 095°06'0 0.0
2015-Feb-07 14:33N 29°45' W 095°06'0 0.0
2015-Feb-07 13:33N 29°45' W 095°06'0 0.0
2015-Feb-07 12:33N 29°45' W 095°06'0 0.0
2015-Feb-07 11:28N 29°45' W 095°06'0 0.0
2015-Feb-07 10:28N 29°45' W 095°06'0 0.0
2015-Feb-07 09:31N 29°45' W 095°06'0 0.0
2015-Feb-07 08:31N 29°45' W 095°06'0 0.0
2015-Feb-07 07:31N 29°45' W 095°06'0 0.0
2015-Feb-07 06:31N 29°45' W 095°06'0 0.0
2015-Feb-07 05:28N 29°45' W 095°06'0 0.0
2015-Feb-07 04:28N 29°45' W 095°06'0 0.0
2015-Feb-07 03:31N 29°45' W 095°06'0 0.0
2015-Feb-07 02:28N 29°45' W 095°06'0 0.0
2015-Feb-07 01:28N 29°45' W 095°06'0 0.0
2015-Feb-07 00:31N 29°45' W 095°06'0 0.0
2015-Feb-06 23:28N 29°45' W 095°06'0 0.0
2015-Feb-06 22:22N 29°45' W 095°06'0 0.0
2015-Feb-06 21:28N 29°45' W 095°06'0 0.0
2015-Feb-06 20:28N 29°45' W 095°06'0 0.0
2015-Feb-06 19:31N 29°45' W 095°06'0 0.0
2015-Feb-06 18:28N 29°45' W 095°06'0 0.0
2015-Feb-06 17:19N 29°45' W 095°06'0 0.0
2015-Feb-06 16:31N 29°45' W 095°06'0 0.0
2015-Feb-06 15:31N 29°45' W 095°06'0 0.0
2015-Feb-06 14:25N 29°45' W 095°06'2 2.1
2015-Feb-06 13:33N 29°44' W 095°08'0 0.0
2015-Feb-06 12:33N 29°44' W 095°08'0 0.0
2015-Feb-06 11:33N 29°44' W 095°08'0 0.1
2015-Feb-06 10:33N 29°44' W 095°08'0 0.2
2015-Feb-06 09:33N 29°44' W 095°08'0 0.0
2015-Feb-06 08:33N 29°44' W 095°08'0 0.0
2015-Feb-06 07:33N 29°44' W 095°08'0 0.1
2015-Feb-06 06:31N 29°44' W 095°08'0 0.1
2015-Feb-06 05:33N 29°44' W 095°08'0 0.1
2015-Feb-06 04:33N 29°44' W 095°08'0 0.0
2015-Feb-06 03:33N 29°44' W 095°08'0 0.0
2015-Feb-06 02:33N 29°44' W 095°08'0 0.0
2015-Feb-06 01:33N 29°44' W 095°08'0 0.0
2015-Feb-06 00:33N 29°44' W 095°08'0 0.1
2015-Feb-05 23:32N 29°44' W 095°08'0 0.1
2015-Feb-05 22:31N 29°44' W 095°08'0 0.1
2015-Feb-05 21:32N 29°44' W 095°08'0 0.1
2015-Feb-05 20:33N 29°44' W 095°08'0 0.0
2015-Feb-05 19:33N 29°44' W 095°08'0 0.0
2015-Feb-05 18:33N 29°44' W 095°08'0 0.1
2015-Feb-05 17:32N 29°44' W 095°08'0 0.0
2015-Feb-05 16:32N 29°44' W 095°08'0 0.0
2015-Feb-05 15:32N 29°44' W 095°08'0 0.0
2015-Feb-05 14:32N 29°44' W 095°08'0 0.1
2015-Feb-05 13:32N 29°44' W 095°08'0 0.0
2015-Feb-05 12:32N 29°44' W 095°08'0 0.0
2015-Feb-05 11:32N 29°44' W 095°08'0 0.0
2015-Feb-05 10:32N 29°44' W 095°08'0 0.0
2015-Feb-05 09:32N 29°44' W 095°08'0 0.0
2015-Feb-05 08:32N 29°44' W 095°08'  

Dump ship's entire track history